Time;durP1;ratioP1;P1;durP2;ratioP2;P2;SDS_P1;SDS_P2;PMS_P1;PMS_P2;Temp;Humidity;BMP_temperature;BMP_pressure;BME280_temperature;BME280_humidity;BME280_pressure;Samples;Min_cycle;Max_cycle;Signal;HPM_P1;HPM_P2
2021/01/27 00:01:12;;;;;;;18.70;11.63;;;5.10;65.80;;;;;;5068032;28;20479;-65
2021/01/27 00:03:38;;;;;;;17.13;11.48;;;5.10;65.70;;;;;;5073628;28;20111;-65
2021/01/27 00:06:04;;;;;;;15.40;9.88;;;5.10;65.70;;;;;;5066868;28;20038;-64
2021/01/27 00:08:29;;;;;;;16.73;9.93;;;5.10;65.50;;;;;;5061194;28;20025;-64
2021/01/27 00:10:55;;;;;;;15.15;10.55;;;5.10;65.40;;;;;;5061982;28;20048;-64
2021/01/27 00:13:21;;;;;;;15.50;10.15;;;5.10;65.30;;;;;;5075182;28;20032;-64
2021/01/27 00:15:47;;;;;;;15.75;10.18;;;5.10;65.30;;;;;;5073935;28;20131;-65
2021/01/27 00:18:16;;;;;;;12.95;8.98;;;5.10;65.40;;;;;;5073936;28;20052;-65
2021/01/27 00:20:42;;;;;;;13.88;9.75;;;5.10;65.00;;;;;;5074076;28;20028;-64
2021/01/27 00:23:08;;;;;;;16.02;10.60;;;5.10;65.00;;;;;;5075102;28;20052;-65
2021/01/27 00:25:37;;;;;;;14.73;9.90;;;5.10;65.00;;;;;;5073056;28;20031;-64
2021/01/27 00:28:05;;;;;;;13.15;9.07;;;5.10;65.00;;;;;;5075204;28;20016;-65
2021/01/27 00:30:38;;;;;;;13.90;9.52;;;5.00;64.90;;;;;;5073308;28;20021;-64
2021/01/27 00:33:05;;;;;;;14.43;10.10;;;5.00;64.90;;;;;;5054808;28;20355;-64
2021/01/27 00:35:34;;;;;;;13.55;9.80;;;5.00;65.10;;;;;;5064984;28;20063;-64
2021/01/27 00:38:06;;;;;;;15.55;9.48;;;5.00;65.10;;;;;;5061627;28;20021;-64
2021/01/27 00:40:32;;;;;;;14.70;9.88;;;4.90;65.00;;;;;;5065263;28;20087;-64
2021/01/27 00:42:58;;;;;;;13.65;9.23;;;4.90;64.90;;;;;;5073363;28;20020;-64
2021/01/27 00:45:23;;;;;;;14.15;9.52;;;4.90;65.00;;;;;;5070467;28;20021;-64
2021/01/27 00:47:49;;;;;;;14.75;9.70;;;4.90;64.90;;;;;;5063023;28;20033;-64
2021/01/27 00:50:15;;;;;;;14.32;9.30;;;4.80;64.80;;;;;;5059009;28;20040;-64
2021/01/27 00:52:43;;;;;;;13.98;9.70;;;4.80;64.80;;;;;;5070238;28;20048;-64
2021/01/27 00:55:20;;;;;;;13.88;9.85;;;4.70;64.80;;;;;;5062573;28;20032;-64
2021/01/27 00:57:46;;;;;;;15.48;9.63;;;4.70;64.90;;;;;;5062258;28;20029;-64
2021/01/27 01:00:18;;;;;;;14.43;9.15;;;4.70;64.90;;;;;;5073142;28;20028;-64
2021/01/27 01:02:44;;;;;;;15.48;9.90;;;4.60;64.80;;;;;;5065211;28;20088;-64
2021/01/27 01:05:13;;;;;;;14.15;9.27;;;4.60;65.00;;;;;;5073805;28;20107;-64
2021/01/27 01:07:42;;;;;;;13.55;8.98;;;4.60;65.00;;;;;;5072041;28;20029;-64
2021/01/27 01:10:08;;;;;;;13.02;9.00;;;4.60;65.00;;;;;;5068763;28;20045;-64
2021/01/27 01:12:34;;;;;;;13.27;9.23;;;4.60;65.00;;;;;;5063948;28;20039;-64
2021/01/27 01:15:00;;;;;;;12.57;9.05;;;4.70;64.90;;;;;;5074487;28;20141;-64
2021/01/27 01:17:26;;;;;;;13.40;9.05;;;4.60;65.00;;;;;;5071284;28;20115;-64
2021/01/27 01:19:51;;;;;;;17.13;10.45;;;4.60;65.00;;;;;;5071272;28;20082;-64
2021/01/27 01:22:17;;;;;;;13.90;9.55;;;4.60;65.10;;;;;;5072897;28;20482;-64
2021/01/27 01:24:43;;;;;;;13.02;9.57;;;4.60;65.00;;;;;;5069303;28;20021;-64
2021/01/27 01:27:08;;;;;;;14.57;10.20;;;4.60;65.00;;;;;;5071935;28;20021;-64
2021/01/27 01:29:34;;;;;;;14.90;9.85;;;4.60;65.00;;;;;;5059487;28;20032;-64
2021/01/27 01:32:00;;;;;;;14.18;9.70;;;4.60;65.10;;;;;;5071285;28;20062;-64
2021/01/27 01:34:25;;;;;;;14.18;9.35;;;4.60;65.10;;;;;;5059029;28;20057;-64
2021/01/27 01:36:51;;;;;;;13.13;10.05;;;4.60;65.00;;;;;;5070848;28;20036;-64
2021/01/27 01:39:17;;;;;;;14.85;9.38;;;4.70;65.00;;;;;;5066820;28;20365;-64
2021/01/27 01:41:42;;;;;;;11.60;8.13;;;4.60;65.10;;;;;;5064789;28;20024;-64
2021/01/27 01:44:08;;;;;;;13.18;9.43;;;4.60;65.20;;;;;;5071783;28;20025;-64
2021/01/27 01:46:34;;;;;;;12.45;9.48;;;4.70;65.30;;;;;;5072219;28;20390;-64
2021/01/27 01:49:07;;;;;;;12.77;8.57;;;4.70;65.10;;;;;;5072636;28;20024;-64
2021/01/27 01:51:40;;;;;;;11.70;8.95;;;4.70;65.30;;;;;;5068021;28;20019;-64
2021/01/27 01:54:38;;;;;;;14.75;9.52;;;4.70;65.10;;;;;;5064602;28;20021;-64
2021/01/27 01:57:15;;;;;;;11.73;8.95;;;4.70;65.10;;;;;;5068979;28;20032;-64
2021/01/27 01:59:47;;;;;;;11.13;8.45;;;4.70;65.30;;;;;;5067431;28;20027;-64
2021/01/27 02:02:13;;;;;;;10.32;8.13;;;4.70;65.20;;;;;;5065736;28;20021;-63
2021/01/27 02:05:03;;;;;;;10.23;7.63;;;4.70;65.20;;;;;;5063503;28;20013;-64
2021/01/27 02:07:30;;;;;;;9.88;7.47;;;4.80;65.30;;;;;;5072958;28;20036;-64
2021/01/27 02:09:55;;;;;;;11.55;7.38;;;4.70;65.10;;;;;;5072363;28;20376;-64
2021/01/27 02:12:40;;;;;;;11.80;7.65;;;4.70;65.10;;;;;;5072210;28;20120;-64
2021/01/27 02:15:36;;;;;;;12.55;7.95;;;4.70;65.10;;;;;;5071424;28;20029;-64
2021/01/27 02:18:50;;;;;;;13.45;8.10;;;4.70;65.10;;;;;;5063229;28;20502;-64
2021/01/27 02:21:36;;;;;;;12.30;8.88;;;4.70;65.10;;;;;;5060750;28;20047;-64
2021/01/27 02:24:39;;;;;;;14.63;9.18;;;4.70;65.20;;;;;;5072309;28;20121;-64
2021/01/27 02:27:23;;;;;;;12.25;8.15;;;4.70;65.50;;;;;;5059418;28;20494;-64
2021/01/27 02:30:12;;;;;;;12.52;8.07;;;4.70;65.80;;;;;;5073041;28;20053;-64
2021/01/27 02:32:40;;;;;;;11.10;8.15;;;4.60;66.00;;;;;;5069884;28;20032;-64
2021/01/27 02:35:15;;;;;;;12.88;9.30;;;4.60;66.10;;;;;;5071476;28;20104;-64
2021/01/27 02:37:48;;;;;;;12.18;8.20;;;4.50;66.20;;;;;;5064026;28;20029;-64
2021/01/27 02:40:26;;;;;;;11.43;8.30;;;4.50;66.40;;;;;;5061051;28;20033;-64
2021/01/27 02:43:05;;;;;;;13.35;8.88;;;4.50;66.70;;;;;;5053005;28;20029;-64
2021/01/27 02:45:35;;;;;;;14.50;9.90;;;4.50;66.80;;;;;;5069865;28;20062;-63
2021/01/27 02:48:14;;;;;;;13.40;9.18;;;4.50;67.10;;;;;;5071856;28;20023;-64
2021/01/27 02:50:52;;;;;;;15.68;10.85;;;4.40;67.10;;;;;;5064209;28;20036;-64
2021/01/27 02:53:22;;;;;;;16.90;10.30;;;4.40;67.30;;;;;;5053014;28;20029;-64
2021/01/27 02:56:00;;;;;;;15.82;10.48;;;4.40;67.30;;;;;;5062320;28;20025;-64
2021/01/27 02:58:40;;;;;;;16.67;10.77;;;4.40;67.20;;;;;;5071751;28;20453;-64
2021/01/27 03:01:27;;;;;;;17.10;11.00;;;4.40;67.30;;;;;;5062897;28;20074;-64
2021/01/27 03:04:01;;;;;;;15.80;10.95;;;4.40;67.30;;;;;;5059631;28;20397;-64
2021/01/27 03:06:27;;;;;;;14.43;10.20;;;4.40;67.40;;;;;;5074973;28;20028;-64
2021/01/27 03:09:00;;;;;;;16.73;11.00;;;4.40;67.20;;;;;;5074823;28;20091;-64
2021/01/27 03:11:30;;;;;;;19.38;11.68;;;4.40;67.20;;;;;;5076430;28;20052;-64
2021/01/27 03:13:57;;;;;;;17.70;12.10;;;4.40;67.30;;;;;;5074277;28;20052;-64
2021/01/27 03:16:28;;;;;;;19.17;11.40;;;4.30;67.60;;;;;;5076690;28;20027;-65
2021/01/27 03:19:05;;;;;;;15.23;11.13;;;4.40;67.70;;;;;;5075273;28;20024;-65
2021/01/27 03:21:48;;;;;;;18.50;11.23;;;4.40;67.60;;;;;;5075550;28;20039;-65
2021/01/27 03:24:22;;;;;;;19.33;11.18;;;4.40;67.60;;;;;;5074879;28;20029;-64
2021/01/27 03:27:02;;;;;;;17.10;11.73;;;4.40;68.30;;;;;;5075313;28;20040;-65
2021/01/27 03:29:51;;;;;;;23.38;13.85;;;4.40;67.50;;;;;;5075646;28;20055;-65
2021/01/27 03:32:51;;;;;;;18.35;12.70;;;4.40;67.40;;;;;;5071268;28;20024;-64
2021/01/27 03:35:28;;;;;;;16.42;11.50;;;4.40;67.70;;;;;;5074597;28;20110;-64
2021/01/27 03:38:20;;;;;;;18.25;12.23;;;4.40;67.90;;;;;;5074820;28;20024;-64
2021/01/27 03:40:47;;;;;;;;;;;4.40;68.00;;;;;;5070890;28;20036;-64
2021/01/27 03:43:20;;;;;;;16.33;10.60;;;4.30;67.70;;;;;;5061471;28;19916;-64
2021/01/27 03:45:52;;;;;;;16.67;11.65;;;4.30;68.20;;;;;;5074331;28;20012;-64
2021/01/27 03:48:34;;;;;;;16.02;9.93;;;4.40;68.20;;;;;;5072804;28;20095;-64
2021/01/27 03:51:00;;;;;;;;;;;4.30;68.20;;;;;;5063794;28;20025;-64
2021/01/27 03:53:27;;;;;;;14.75;9.38;;;4.30;67.90;;;;;;5071095;28;20038;-64
2021/01/27 03:56:00;;;;;;;14.48;9.45;;;4.30;68.10;;;;;;5064286;28;20472;-64
2021/01/27 03:58:39;;;;;;;14.98;10.15;;;4.30;68.40;;;;;;5060359;28;20478;-64
2021/01/27 04:01:17;;;;;;;14.18;9.85;;;4.30;68.30;;;;;;5069840;28;20031;-64
2021/01/27 04:03:43;;;;;;;13.38;9.00;;;4.30;68.30;;;;;;5073040;28;20027;-64
2021/01/27 04:06:09;;;;;;;15.23;9.13;;;4.30;68.60;;;;;;5075469;28;20025;-64
2021/01/27 04:08:37;;;;;;;12.15;9.02;;;4.30;68.50;;;;;;5073459;28;20036;-64
2021/01/27 04:11:04;;;;;;;11.77;8.40;;;4.30;68.30;;;;;;5076204;28;20472;-64
2021/01/27 04:13:30;;;;;;;14.98;10.05;;;4.30;68.20;;;;;;5074115;28;20032;-64
2021/01/27 04:15:56;;;;;;;14.65;9.85;;;4.30;68.10;;;;;;5078601;28;20536;-64
2021/01/27 04:18:23;;;;;;;13.05;8.95;;;4.40;68.20;;;;;;5078416;28;20028;-65
2021/01/27 04:20:49;;;;;;;13.60;9.05;;;4.30;68.20;;;;;;5073745;28;20031;-64
2021/01/27 04:23:15;;;;;;;14.68;10.15;;;4.40;68.20;;;;;;5064141;28;20029;-64
2021/01/27 04:25:41;;;;;;;16.85;11.50;;;4.40;68.00;;;;;;5067934;28;20079;-64
2021/01/27 04:28:07;;;;;;;14.77;10.05;;;4.40;68.30;;;;;;5069135;28;20020;-64
2021/01/27 04:30:34;;;;;;;12.95;9.80;;;4.40;68.20;;;;;;5068052;28;20107;-64
2021/01/27 04:33:05;;;;;;;16.85;10.50;;;4.40;68.00;;;;;;5071197;28;20503;-64
2021/01/27 04:35:31;;;;;;;15.07;10.43;;;4.40;68.10;;;;;;5072520;28;20104;-64
2021/01/27 04:37:57;;;;;;;13.43;9.70;;;4.40;68.10;;;;;;5068539;28;20120;-64
2021/01/27 04:40:30;;;;;;;13.65;10.15;;;4.40;68.10;;;;;;5070679;28;20082;-64
2021/01/27 04:42:56;;;;;;;15.45;10.57;;;4.40;68.00;;;;;;5070969;28;20373;-64
2021/01/27 04:45:22;;;;;;;17.83;11.85;;;4.30;68.00;;;;;;5065134;28;20082;-64
2021/01/27 04:48:03;;;;;;;17.20;11.30;;;4.30;68.10;;;;;;5062095;28;20021;-64
2021/01/27 04:50:45;;;;;;;15.75;10.50;;;4.30;68.10;;;;;;5066759;28;20021;-65
2021/01/27 04:53:25;;;;;;;;;;;4.30;68.10;;;;;;5070449;28;20050;-64
2021/01/27 04:56:10;;;;;;;13.90;9.13;;;4.30;68.10;;;;;;5072786;28;20368;-64
2021/01/27 04:59:26;;;;;;;14.48;10.20;;;4.30;68.10;;;;;;5057927;28;20025;-64
2021/01/27 05:02:01;;;;;;;15.27;9.68;;;4.30;68.10;;;;;;5068013;28;20055;-64
2021/01/27 05:04:45;;;;;;;12.73;9.20;;;4.20;68.20;;;;;;5072978;28;20024;-64
2021/01/27 05:07:15;;;;;;;15.80;9.50;;;4.20;68.30;;;;;;5074207;28;20029;-64
2021/01/27 05:09:53;;;;;;;15.75;10.85;;;4.20;68.40;;;;;;5073236;28;20124;-64
2021/01/27 05:12:19;;;;;;;15.38;10.57;;;4.20;68.40;;;;;;5073038;28;20070;-64
2021/01/27 05:14:47;;;;;;;15.50;10.15;;;4.20;68.50;;;;;;5072048;28;20107;-64
2021/01/27 05:17:17;;;;;;;15.02;10.43;;;4.20;68.50;;;;;;5074032;28;20028;-64
2021/01/27 05:19:44;;;;;;;12.50;9.27;;;4.20;68.50;;;;;;5073568;28;20040;-64
2021/01/27 05:22:12;;;;;;;14.70;9.52;;;4.20;68.60;;;;;;5071430;28;20435;-64
2021/01/27 05:24:38;;;;;;;15.25;11.05;;;4.20;68.60;;;;;;5071478;28;20021;-64
2021/01/27 05:27:08;;;;;;;15.43;10.40;;;4.20;68.60;;;;;;5071877;28;20048;-65
2021/01/27 05:29:50;;;;;;;14.02;9.52;;;4.20;68.60;;;;;;5058091;28;20028;-64
2021/01/27 05:32:18;;;;;;;15.95;9.27;;;4.20;68.50;;;;;;5066716;28;20016;-64
2021/01/27 05:34:48;;;;;;;15.75;10.63;;;4.20;68.60;;;;;;5064418;28;20197;-65
2021/01/27 05:37:35;;;;;;;15.60;10.57;;;4.20;68.70;;;;;;5066078;28;20024;-64
2021/01/27 05:40:15;;;;;;;13.25;9.23;;;4.20;68.80;;;;;;5063431;28;20025;-65
2021/01/27 05:42:43;;;;;;;12.52;8.55;;;4.10;68.90;;;;;;5065040;28;20036;-65
2021/01/27 05:45:44;;;;;;;13.13;8.90;;;4.10;68.80;;;;;;5065144;28;20082;-64
2021/01/27 05:48:40;;;;;;;12.48;8.82;;;4.10;68.60;;;;;;5058455;28;20112;-64
2021/01/27 05:51:05;;;;;;;13.70;9.43;;;4.00;68.80;;;;;;5074495;28;20031;-64
2021/01/27 05:53:32;;;;;;;14.40;9.63;;;4.00;68.90;;;;;;5067474;28;20476;-64
2021/01/27 05:56:00;;;;;;;12.63;9.40;;;4.00;69.00;;;;;;5063600;28;20100;-64
2021/01/27 05:58:26;;;;;;;15.75;9.48;;;4.00;69.00;;;;;;5068912;28;20034;-64
2021/01/27 06:00:52;;;;;;;12.20;8.70;;;4.00;69.10;;;;;;5072582;28;20104;-64
2021/01/27 06:03:23;;;;;;;15.63;10.20;;;4.00;69.10;;;;;;5070962;28;20025;-64
2021/01/27 06:05:50;;;;;;;15.90;10.32;;;4.00;69.20;;;;;;5067536;28;20032;-64
2021/01/27 06:08:22;;;;;;;13.07;9.00;;;3.90;69.20;;;;;;5064365;28;20028;-64
2021/01/27 06:10:49;;;;;;;16.15;9.88;;;3.90;69.20;;;;;;5065647;28;20045;-64
2021/01/27 06:13:25;;;;;;;15.65;10.77;;;3.90;69.10;;;;;;5067082;28;20123;-64
2021/01/27 06:15:51;;;;;;;15.38;10.52;;;3.90;69.30;;;;;;5066911;28;20197;-64
2021/01/27 06:18:31;;;;;;;15.57;10.57;;;3.90;69.10;;;;;;5063850;28;20100;-64
2021/01/27 06:21:18;;;;;;;16.50;10.35;;;3.90;69.30;;;;;;5064980;28;20028;-64
2021/01/27 06:23:53;;;;;;;13.88;9.48;;;4.00;69.40;;;;;;5061406;28;20108;-64
2021/01/27 06:26:46;;;;;;;14.80;9.43;;;3.90;69.20;;;;;;5061428;28;20074;-64
2021/01/27 06:29:30;;;;;;;11.40;7.93;;;4.00;69.20;;;;;;5064437;28;20361;-64
2021/01/27 06:32:01;;;;;;;12.65;8.75;;;4.00;69.10;;;;;;5062579;28;20087;-64
2021/01/27 06:35:04;;;;;;;10.45;7.90;;;4.00;69.10;;;;;;5061354;28;21497;-63
2021/01/27 06:37:41;;;;;;;11.48;8.25;;;4.00;69.10;;;;;;5069179;28;20032;-64
2021/01/27 06:40:27;;;;;;;12.65;8.45;;;4.10;69.20;;;;;;5067301;28;20047;-64
2021/01/27 06:43:28;;;;;;;12.05;8.13;;;4.10;69.10;;;;;;5069183;28;20109;-64
2021/01/27 06:46:05;;;;;;;11.32;7.45;;;4.10;68.90;;;;;;5067599;28;20025;-64
2021/01/27 06:48:58;;;;;;;12.73;9.30;;;4.10;68.90;;;;;;5063422;28;20024;-63
2021/01/27 06:51:45;;;;;;;12.68;9.18;;;4.10;69.00;;;;;;5060681;28;20032;-64
2021/01/27 06:54:22;;;;;;;14.18;9.40;;;4.10;68.80;;;;;;5063276;28;20469;-63
2021/01/27 06:57:33;;;;;;;11.73;8.15;;;4.20;68.90;;;;;;5064716;28;20027;-64
2021/01/27 07:00:23;;;;;;;11.43;7.82;;;4.20;68.80;;;;;;5063666;28;20020;-63
2021/01/27 07:03:32;;;;;;;11.43;7.88;;;4.20;68.70;;;;;;5058607;28;20064;-64
2021/01/27 07:06:42;;;;;;;12.45;7.68;;;4.10;68.60;;;;;;5060253;28;20025;-63
2021/01/27 07:09:42;;;;;;;11.90;7.25;;;4.10;68.90;;;;;;5051500;28;20047;-64
2021/01/27 07:12:10;;;;;;;11.48;8.23;;;4.10;69.10;;;;;;5060327;28;20444;-63
2021/01/27 07:14:42;;;;;;;10.45;7.57;;;4.10;69.10;;;;;;5058290;28;20024;-63
2021/01/27 07:17:48;;;;;;;12.93;8.10;;;4.10;69.40;;;;;;5056885;28;20825;-64
2021/01/27 07:20:24;;;;;;;11.25;7.38;;;4.10;69.40;;;;;;5054771;28;20100;-64
2021/01/27 07:22:54;;;;;;;9.98;6.90;;;4.10;69.50;;;;;;5072291;28;20033;-64
2021/01/27 07:25:28;;;;;;;10.25;6.95;;;4.10;69.60;;;;;;5071365;28;20035;-64
2021/01/27 07:28:20;;;;;;;10.68;7.03;;;4.10;69.60;;;;;;5055838;28;20040;-64
2021/01/27 07:30:54;;;;;;;10.07;6.65;;;4.20;69.80;;;;;;5055362;28;20073;-64
2021/01/27 07:33:29;;;;;;;10.88;7.25;;;4.10;70.00;;;;;;5062260;28;20408;-64
2021/01/27 07:36:05;;;;;;;10.63;7.25;;;4.20;70.20;;;;;;5059417;28;20620;-63
2021/01/27 07:38:35;;;;;;;10.73;6.97;;;4.20;70.30;;;;;;5064214;28;20060;-64
2021/01/27 07:41:07;;;;;;;10.05;6.97;;;4.20;70.40;;;;;;5061868;28;20032;-63
2021/01/27 07:43:52;;;;;;;10.60;7.25;;;4.20;70.30;;;;;;5062619;28;20113;-64
2021/01/27 07:46:30;;;;;;;9.82;7.25;;;4.20;70.30;;;;;;5059958;28;20480;-64
2021/01/27 07:49:03;;;;;;;11.55;8.13;;;4.20;70.50;;;;;;5055681;28;20112;-64
2021/01/27 07:51:35;;;;;;;11.52;7.88;;;4.20;70.50;;;;;;5056594;28;20025;-64
2021/01/27 07:54:09;;;;;;;14.32;8.90;;;4.20;70.50;;;;;;5058384;28;20376;-64
2021/01/27 07:57:08;;;;;;;11.63;7.85;;;4.20;70.80;;;;;;5058353;28;20028;-64
2021/01/27 07:59:44;;;;;;;11.93;8.07;;;4.30;71.60;;;;;;5048082;28;20051;-64
2021/01/27 08:02:18;;;;;;;12.05;7.47;;;4.30;71.00;;;;;;5049646;28;20064;-64
2021/01/27 08:04:49;;;;;;;11.63;7.70;;;4.30;71.10;;;;;;5052011;28;20033;-64
2021/01/27 08:07:30;;;;;;;11.93;7.93;;;4.40;71.20;;;;;;5054008;28;20480;-64
2021/01/27 08:10:16;;;;;;;15.13;8.38;;;4.40;71.20;;;;;;5053310;28;20056;-64
2021/01/27 08:13:01;;;;;;;12.98;9.10;;;4.40;71.20;;;;;;5058085;28;20086;-64
2021/01/27 08:15:27;;;;;;;12.27;8.15;;;4.40;71.00;;;;;;5053739;28;20029;-64
2021/01/27 08:17:55;;;;;;;13.55;8.13;;;4.50;71.10;;;;;;5057043;28;20051;-64
2021/01/27 08:20:35;;;;;;;10.57;7.25;;;4.50;71.10;;;;;;5060594;28;20143;-64
2021/01/27 08:23:06;;;;;;;10.45;7.75;;;4.50;71.20;;;;;;5057206;28;20025;-64
2021/01/27 08:26:00;;;;;;;14.27;9.15;;;4.50;71.10;;;;;;5055305;28;20024;-64
2021/01/27 08:28:39;;;;;;;11.23;7.85;;;4.50;71.10;;;;;;5054965;28;20025;-64
2021/01/27 08:31:07;;;;;;;11.32;8.85;;;4.50;71.00;;;;;;5055521;28;20085;-64
2021/01/27 08:33:49;;;;;;;13.93;9.15;;;4.40;71.00;;;;;;5050305;28;20129;-64
2021/01/27 08:36:32;;;;;;;12.02;8.20;;;4.40;71.00;;;;;;5060428;28;20037;-63
2021/01/27 08:38:58;;;;;;;12.48;7.97;;;4.30;71.00;;;;;;5058380;28;20556;-64
2021/01/27 08:41:46;;;;;;;13.82;9.02;;;4.30;71.10;;;;;;5056242;28;20120;-64
2021/01/27 08:44:36;;;;;;;11.63;7.50;;;4.20;71.30;;;;;;5052529;28;20036;-64
2021/01/27 08:47:18;;;;;;;11.00;8.13;;;4.10;71.60;;;;;;5051753;28;20041;-63
2021/01/27 08:50:00;;;;;;;10.82;7.60;;;4.20;71.90;;;;;;5053107;28;20029;-64
2021/01/27 08:52:31;;;;;;;11.68;8.38;;;4.10;72.00;;;;;;5051943;28;20032;-64
2021/01/27 08:54:57;;;;;;;10.80;7.55;;;4.10;72.10;;;;;;5055120;28;20039;-64
2021/01/27 08:57:37;;;;;;;11.82;8.35;;;4.10;72.20;;;;;;5054925;28;20461;-63
2021/01/27 09:00:23;;;;;;;12.70;8.57;;;4.10;72.40;;;;;;5054577;28;20032;-63
2021/01/27 09:02:54;;;;;;;13.10;8.52;;;4.10;72.50;;;;;;5053061;28;20036;-63
2021/01/27 09:05:23;;;;;;;12.68;8.30;;;4.10;72.90;;;;;;5054327;28;20025;-64
2021/01/27 09:07:57;;;;;;;14.38;8.77;;;4.10;72.80;;;;;;5057431;28;20028;-64
2021/01/27 09:10:47;;;;;;;13.43;8.20;;;4.10;72.80;;;;;;5051369;28;20044;-64
2021/01/27 09:13:41;;;;;;;13.63;9.32;;;4.10;73.20;;;;;;5054043;28;20035;-63
2021/01/27 09:16:22;;;;;;;13.90;8.95;;;4.20;73.30;;;;;;5067367;28;20056;-65
2021/01/27 09:19:13;;;;;;;13.43;8.50;;;4.10;73.40;;;;;;5053977;28;20032;-64
2021/01/27 09:21:39;;;;;;;12.82;8.73;;;4.20;73.30;;;;;;5052448;28;20389;-64
2021/01/27 09:24:26;;;;;;;14.85;9.57;;;4.10;73.30;;;;;;5053111;28;20115;-64
2021/01/27 09:26:54;;;;;;;12.40;8.60;;;4.20;73.50;;;;;;5049957;28;20103;-64
2021/01/27 09:29:23;;;;;;;14.90;9.43;;;4.20;73.80;;;;;;5054005;28;20032;-64
2021/01/27 09:31:52;;;;;;;13.30;9.15;;;4.20;73.90;;;;;;5046403;28;20059;-64
2021/01/27 09:34:29;;;;;;;13.25;9.27;;;4.20;73.90;;;;;;5049192;28;20033;-64
2021/01/27 09:37:01;;;;;;;15.18;9.80;;;4.20;74.00;;;;;;5047184;28;20036;-64
2021/01/27 09:39:30;;;;;;;15.20;9.82;;;4.20;73.80;;;;;;5042795;28;20028;-64
2021/01/27 09:42:09;;;;;;;12.80;9.18;;;4.20;73.90;;;;;;5047755;28;20544;-64
2021/01/27 09:44:36;;;;;;;13.70;9.93;;;4.30;73.90;;;;;;5046529;28;20119;-64
2021/01/27 09:47:11;;;;;;;13.02;9.40;;;4.20;74.10;;;;;;5053101;28;20090;-64
2021/01/27 09:50:04;;;;;;;16.83;9.70;;;4.30;74.40;;;;;;5053972;28;20028;-63
2021/01/27 09:52:31;;;;;;;15.95;10.45;;;4.20;74.30;;;;;;5051708;28;20141;-64
2021/01/27 09:55:08;;;;;;;16.85;10.35;;;4.30;74.60;;;;;;5049577;28;20021;-64
2021/01/27 09:57:36;;;;;;;15.02;9.75;;;4.30;74.60;;;;;;5051315;28;21892;-64
2021/01/27 10:00:06;;;;;;;14.88;10.10;;;4.30;74.60;;;;;;5045800;28;20066;-64
2021/01/27 10:02:34;;;;;;;14.15;8.70;;;4.30;74.80;;;;;;5048126;28;20046;-64
2021/01/27 10:05:02;;;;;;;14.02;9.45;;;4.30;74.80;;;;;;5048420;28;20025;-64
2021/01/27 10:07:37;;;;;;;13.68;9.57;;;4.30;74.70;;;;;;5055019;28;20067;-64
2021/01/27 10:10:14;;;;;;;14.80;8.98;;;4.30;74.70;;;;;;5051025;28;20041;-64
2021/01/27 10:12:41;;;;;;;14.35;9.05;;;4.30;74.60;;;;;;5051628;28;20123;-64
2021/01/27 10:15:32;;;;;;;13.52;8.43;;;4.30;74.80;;;;;;5052044;28;20162;-64
2021/01/27 10:18:12;;;;;;;12.02;8.02;;;4.30;74.90;;;;;;5051439;28;20047;-64
2021/01/27 10:20:40;;;;;;;11.18;8.20;;;4.20;74.90;;;;;;5052783;28;20562;-64
2021/01/27 10:23:11;;;;;;;11.82;7.75;;;4.20;74.90;;;;;;5055232;28;20123;-63
2021/01/27 10:25:47;;;;;;;13.85;9.15;;;4.20;74.90;;;;;;5049782;28;20126;-64
2021/01/27 10:28:15;;;;;;;11.48;7.47;;;4.20;75.00;;;;;;5055034;28;20059;-64
2021/01/27 10:30:55;;;;;;;11.95;8.45;;;4.10;75.00;;;;;;5052649;28;20037;-64
2021/01/27 10:33:48;;;;;;;14.18;8.25;;;4.10;75.00;;;;;;5051591;28;20125;-64
2021/01/27 10:36:41;;;;;;;12.40;7.95;;;4.10;75.30;;;;;;5052898;28;20033;-64
2021/01/27 10:39:29;;;;;;;11.10;7.85;;;4.10;75.40;;;;;;5055357;28;20044;-64
2021/01/27 10:42:07;;;;;;;12.65;7.93;;;4.00;75.20;;;;;;5051203;28;20112;-64
2021/01/27 10:44:35;;;;;;;12.15;7.90;;;4.10;75.30;;;;;;5048529;28;20033;-63
2021/01/27 10:47:29;;;;;;;13.15;8.40;;;4.00;75.40;;;;;;5051550;28;20436;-63
2021/01/27 10:49:56;;;;;;;10.57;8.13;;;4.00;75.50;;;;;;5050941;28;20064;-63
2021/01/27 10:52:26;;;;;;;11.10;7.63;;;3.90;75.70;;;;;;5051005;28;20108;-63
2021/01/27 10:54:59;;;;;;;11.57;7.88;;;3.90;76.50;;;;;;5046762;28;20464;-63
2021/01/27 10:57:24;;;;;;;11.45;7.47;;;3.90;76.10;;;;;;5048233;28;20453;-65
2021/01/27 10:59:52;;;;;;;10.02;7.07;;;4.00;76.00;;;;;;5053726;28;20025;-63
2021/01/27 11:02:19;;;;;;;10.48;7.47;;;3.90;76.00;;;;;;5051525;28;20144;-63
2021/01/27 11:04:44;;;;;;;10.32;6.95;;;3.90;76.00;;;;;;5050085;28;20127;-63
2021/01/27 11:07:10;;;;;;;10.38;6.65;;;3.90;76.10;;;;;;5044388;28;20391;-63
2021/01/27 11:09:36;;;;;;;10.85;7.28;;;3.90;76.10;;;;;;5045813;28;20048;-63
2021/01/27 11:12:02;;;;;;;10.18;7.75;;;3.90;76.10;;;;;;5055299;28;20024;-64
2021/01/27 11:14:27;;;;;;;11.10;7.65;;;3.90;76.10;;;;;;5050159;28;20111;-63
2021/01/27 11:16:53;;;;;;;11.00;7.70;;;3.90;76.20;;;;;;5054532;28;20029;-63
2021/01/27 11:19:19;;;;;;;11.05;7.75;;;3.90;76.30;;;;;;5053769;28;20489;-63
2021/01/27 11:21:45;;;;;;;11.45;7.80;;;3.90;76.30;;;;;;5043212;28;21687;-63
2021/01/27 11:24:10;;;;;;;11.35;7.53;;;3.80;76.40;;;;;;5053266;28;20068;-63
2021/01/27 11:26:36;;;;;;;11.45;8.02;;;3.80;76.50;;;;;;5053928;28;20070;-63
2021/01/27 11:29:04;;;;;;;11.27;7.45;;;3.80;76.50;;;;;;5059892;28;20377;-63
2021/01/27 11:31:29;;;;;;;11.25;7.80;;;3.80;76.80;;;;;;5053531;28;20116;-63
2021/01/27 11:33:56;;;;;;;11.93;7.60;;;3.80;76.90;;;;;;5056193;28;20142;-64
2021/01/27 11:36:23;;;;;;;12.95;8.40;;;3.80;77.00;;;;;;5055869;28;20575;-64
2021/01/27 11:38:49;;;;;;;11.25;8.15;;;3.80;76.90;;;;;;5054034;28;20029;-63
2021/01/27 11:41:17;;;;;;;12.20;8.48;;;3.70;77.00;;;;;;5057780;28;20102;-63
2021/01/27 11:43:43;;;;;;;11.73;7.88;;;3.70;77.20;;;;;;5055713;28;20056;-63
2021/01/27 11:46:10;;;;;;;11.43;8.48;;;3.70;77.20;;;;;;5051320;28;20032;-63
2021/01/27 11:48:39;;;;;;;11.20;8.15;;;3.70;77.20;;;;;;5053503;28;20037;-63
2021/01/27 11:51:06;;;;;;;14.32;8.85;;;3.70;77.40;;;;;;5052972;28;20520;-64
2021/01/27 11:53:32;;;;;;;11.82;8.15;;;3.70;77.40;;;;;;5052639;28;20095;-63
2021/01/27 11:55:58;;;;;;;11.85;8.02;;;3.70;77.40;;;;;;5045798;28;20033;-64
2021/01/27 11:58:24;;;;;;;9.95;7.80;;;3.70;77.50;;;;;;5058943;28;20086;-61
2021/01/27 12:00:50;;;;;;;9.75;6.97;;;3.70;77.40;;;;;;5046330;28;20108;-60
2021/01/27 12:03:16;;;;;;;10.38;7.05;;;3.70;77.50;;;;;;5052274;28;20040;-60
2021/01/27 12:05:44;;;;;;;9.82;6.70;;;3.70;77.40;;;;;;5048501;28;20170;-61
2021/01/27 12:08:10;;;;;;;11.50;7.25;;;3.70;77.50;;;;;;5051956;28;20073;-61
2021/01/27 12:10:35;;;;;;;11.98;7.20;;;3.70;77.50;;;;;;5055768;28;20040;-61
2021/01/27 12:13:01;;;;;;;9.90;6.68;;;3.70;77.60;;;;;;5057800;28;20046;-61
2021/01/27 12:15:28;;;;;;;11.07;7.20;;;3.70;77.60;;;;;;5052311;28;20064;-61
2021/01/27 12:17:54;;;;;;;9.70;6.70;;;3.70;77.80;;;;;;5052587;28;20108;-59
2021/01/27 12:20:19;;;;;;;10.10;7.07;;;3.60;77.70;;;;;;5051187;28;20461;-61
2021/01/27 12:22:45;;;;;;;10.18;6.80;;;3.70;77.80;;;;;;5052904;28;20556;-60
2021/01/27 12:25:12;;;;;;;10.20;7.32;;;3.60;77.80;;;;;;5052548;28;20036;-61
2021/01/27 12:27:37;;;;;;;11.15;7.28;;;3.60;78.00;;;;;;5054106;28;20427;-60
2021/01/27 12:30:08;;;;;;;8.80;6.53;;;3.60;78.00;;;;;;5059961;28;20027;-58
2021/01/27 12:32:34;;;;;;;10.23;6.82;;;3.60;78.10;;;;;;5055081;28;20055;-59
2021/01/27 12:35:00;;;;;;;10.65;7.00;;;3.60;78.00;;;;;;5052964;28;20119;-61
2021/01/27 12:37:26;;;;;;;12.80;7.07;;;3.60;77.90;;;;;;5043002;28;20476;-60
2021/01/27 12:39:51;;;;;;;9.35;6.95;;;3.60;78.20;;;;;;5057817;28;20697;-61
2021/01/27 12:42:17;;;;;;;9.90;6.30;;;3.50;78.10;;;;;;5052732;28;20032;-62
2021/01/27 12:44:44;;;;;;;10.30;7.32;;;3.50;78.20;;;;;;5054628;28;20051;-61
2021/01/27 12:47:10;;;;;;;11.18;7.63;;;3.50;78.30;;;;;;5051588;28;20805;-60
2021/01/27 12:49:36;;;;;;;10.20;7.07;;;3.50;78.40;;;;;;5052889;28;20167;-62
2021/01/27 12:52:02;;;;;;;10.05;7.10;;;3.50;78.50;;;;;;5060374;28;20103;-63
2021/01/27 12:54:28;;;;;;;9.63;6.93;;;3.40;78.40;;;;;;5056043;28;20032;-59
2021/01/27 12:56:54;;;;;;;10.95;7.03;;;3.40;78.60;;;;;;5054160;28;20078;-59
2021/01/27 12:59:20;;;;;;;11.50;7.72;;;3.40;78.50;;;;;;5051711;28;20024;-57
2021/01/27 13:01:45;;;;;;;11.63;6.72;;;3.30;78.40;;;;;;5056484;28;20040;-59
2021/01/27 13:04:11;;;;;;;11.07;7.05;;;3.30;78.80;;;;;;5057160;28;20024;-61
2021/01/27 13:06:37;;;;;;;10.82;7.53;;;3.30;78.90;;;;;;5055488;28;20036;-58
2021/01/27 13:09:03;;;;;;;11.75;7.68;;;3.30;78.90;;;;;;5049505;28;20137;-60
2021/01/27 13:11:29;;;;;;;11.32;7.38;;;3.20;78.80;;;;;;5042159;28;20036;-59
2021/01/27 13:13:54;;;;;;;12.30;8.70;;;3.20;78.80;;;;;;5052529;28;20036;-61
2021/01/27 13:16:20;;;;;;;11.85;7.65;;;3.20;78.90;;;;;;5056274;28;20080;-61
2021/01/27 13:18:47;;;;;;;12.32;7.70;;;3.20;78.90;;;;;;5055679;28;20089;-61